Time;durP1;ratioP1;P1;durP2;ratioP2;P2;SDS_P1;SDS_P2;PMS_P1;PMS_P2;Temp;Humidity;BMP_temperature;BMP_pressure;BME280_temperature;BME280_humidity;BME280_pressure;Samples;Min_cycle;Max_cycle;Signal;HPM_P1;HPM_P2
2022/06/19 00:01:09;;;;;;;4.60;3.00;;;;;;;;;;4865376;29;20041;-82
2022/06/19 00:03:40;;;;;;;3.70;2.70;;;;;;;;;;4865491;29;20115;-80
2022/06/19 00:06:06;;;;;;;3.78;2.80;;;;;;;;;;4865326;29;20064;-80
2022/06/19 00:08:32;;;;;;;3.80;2.78;;;;;;;;;;4865297;29;20032;-83
2022/06/19 00:10:59;;;;;;;5.03;3.17;;;;;;;;;;4864426;29;20071;-82
2022/06/19 00:13:26;;;;;;;5.85;3.53;;;;;;;;;;4864987;29;20025;-83
2022/06/19 00:15:52;;;;;;;4.72;3.20;;;;;;;;;;4865182;29;20044;-81
2022/06/19 00:18:18;;;;;;;4.50;3.08;;;;;;;;;;4881836;29;20116;-81
2022/06/19 00:20:44;;;;;;;4.78;3.20;;;;;;;;;;4864817;29;20029;-81
2022/06/19 00:23:11;;;;;;;5.70;3.22;;;;;;;;;;4881671;29;20071;-82
2022/06/19 00:25:37;;;;;;;5.32;3.00;;;;;;;;;;4881519;29;20493;-80
2022/06/19 00:28:04;;;;;;;3.75;2.80;;;;;;;;;;4865115;29;20033;-81
2022/06/19 00:30:31;;;;;;;4.63;2.95;;;;;;;;;;4865120;29;20025;-79
2022/06/19 00:32:58;;;;;;;3.63;2.85;;;;;;;;;;4881642;29;20486;-83
2022/06/19 00:35:26;;;;;;;5.70;3.20;;;;;;;;;;4864918;29;20411;-80
2022/06/19 00:37:53;;;;;;;3.25;2.72;;;;;;;;;;4864462;29;20029;-83
2022/06/19 00:40:19;;;;;;;4.65;3.20;;;;;;;;;;4864747;29;20474;-81
2022/06/19 00:42:45;;;;;;;5.25;2.80;;;;;;;;;;4864701;29;20041;-84
2022/06/19 00:45:30;;;;;;;4.60;3.03;;;;;;;;;;4881241;29;20050;-83
2022/06/19 00:47:56;;;;;;;4.00;2.92;;;;;;;;;;4864476;29;20137;-79
2022/06/19 00:50:33;;;;;;;5.40;3.00;;;;;;;;;;4881050;29;20021;-84
2022/06/19 00:53:00;;;;;;;4.47;3.15;;;;;;;;;;4864726;29;20029;-85
2022/06/19 00:55:31;;;;;;;7.53;3.40;;;;;;;;;;4864624;29;20058;-83
2022/06/19 00:58:17;;;;;;;5.18;3.10;;;;;;;;;;4864562;29;20040;-85
2022/06/19 01:00:46;;;;;;;4.78;3.42;;;;;;;;;;4864288;29;20104;-81
2022/06/19 01:03:15;;;;;;;5.93;3.65;;;;;;;;;;4881008;29;20036;-84
2022/06/19 01:05:43;;;;;;;5.43;3.70;;;;;;;;;;4864552;29;20056;-79
2022/06/19 01:08:09;;;;;;;6.22;3.60;;;;;;;;;;4864312;29;20033;-82
2022/06/19 01:10:39;;;;;;;4.88;3.45;;;;;;;;;;4864224;29;20032;-81
2022/06/19 01:13:05;;;;;;;4.88;3.38;;;;;;;;;;4864221;29;20035;-82
2022/06/19 01:15:31;;;;;;;5.72;3.10;;;;;;;;;;4863971;29;20103;-81
2022/06/19 01:18:04;;;;;;;4.47;3.00;;;;;;;;;;4864445;29;20040;-84
2022/06/19 01:20:32;;;;;;;6.05;3.20;;;;;;;;;;4864306;29;20033;-81
2022/06/19 01:23:04;;;;;;;5.55;3.38;;;;;;;;;;4880592;29;20089;-81
2022/06/19 01:25:35;;;;;;;6.85;3.40;;;;;;;;;;4863982;29;20091;-83
2022/06/19 01:30:52;;;;;;;5.38;3.45;;;;;;;;;;4851916;29;20044;-81
2022/06/19 01:33:20;;;;;;;5.45;3.28;;;;;;;;;;4863996;29;20447;-83
2022/06/19 01:35:48;;;;;;;4.68;3.70;;;;;;;;;;4864045;29;20029;-81
2022/06/19 01:38:17;;;;;;;4.85;3.70;;;;;;;;;;4863988;29;20033;-84
2022/06/19 01:40:45;;;;;;;4.90;3.47;;;;;;;;;;4863725;29;20033;-81
2022/06/19 01:43:11;;;;;;;4.43;3.50;;;;;;;;;;4880243;29;20060;-83
2022/06/19 01:45:42;;;;;;;5.75;3.60;;;;;;;;;;4863511;29;20048;-82
2022/06/19 01:48:08;;;;;;;5.03;3.42;;;;;;;;;;4863535;29;20042;-82
2022/06/19 01:50:35;;;;;;;3.72;3.33;;;;;;;;;;4879145;29;20064;-82
2022/06/19 01:53:07;;;;;;;4.65;3.78;;;;;;;;;;4880088;29;20025;-81
2022/06/19 01:55:34;;;;;;;5.53;3.67;;;;;;;;;;4863642;29;20505;-83
2022/06/19 01:58:01;;;;;;;4.72;3.25;;;;;;;;;;4880015;29;20029;-83
2022/06/19 02:00:29;;;;;;;4.95;3.63;;;;;;;;;;4879748;29;20021;-81
2022/06/19 02:03:06;;;;;;;5.65;3.67;;;;;;;;;;4863167;29;20035;-80
2022/06/19 02:05:33;;;;;;;4.97;3.55;;;;;;;;;;4863139;29;20517;-83
2022/06/19 02:07:59;;;;;;;5.18;3.45;;;;;;;;;;4863432;29;20036;-84
2022/06/19 02:10:26;;;;;;;5.93;3.63;;;;;;;;;;4863386;29;20072;-82
2022/06/19 02:12:52;;;;;;;4.18;3.38;;;;;;;;;;4862994;29;20470;-83
2022/06/19 02:15:18;;;;;;;7.78;3.38;;;;;;;;;;4863378;29;20148;-84
2022/06/19 02:17:49;;;;;;;6.85;3.35;;;;;;;;;;4863291;29;20085;-82
2022/06/19 02:20:16;;;;;;;4.80;3.25;;;;;;;;;;4880174;29;20025;-85
2022/06/19 02:22:42;;;;;;;4.32;3.60;;;;;;;;;;4863256;29;20062;-82
2022/06/19 02:25:09;;;;;;;6.22;3.50;;;;;;;;;;4879780;29;20085;-84
2022/06/19 02:27:36;;;;;;;5.28;3.70;;;;;;;;;;4863080;29;20383;-80
2022/06/19 02:30:05;;;;;;;5.93;4.10;;;;;;;;;;4862990;29;20081;-85
2022/06/19 02:32:39;;;;;;;5.43;4.00;;;;;;;;;;4863147;29;20435;-85
2022/06/19 02:35:07;;;;;;;4.90;3.97;;;;;;;;;;4862944;29;20482;-81
2022/06/19 02:37:38;;;;;;;5.47;3.88;;;;;;;;;;4863103;29;20103;-83
2022/06/19 02:40:24;;;;;;;4.97;3.80;;;;;;;;;;4863180;29;20025;-84
2022/06/19 02:42:51;;;;;;;4.55;3.97;;;;;;;;;;4862963;29;20025;-83
2022/06/19 02:45:19;;;;;;;5.90;4.20;;;;;;;;;;4862947;29;20116;-83
2022/06/19 02:47:45;;;;;;;5.63;4.00;;;;;;;;;;4862863;29;20091;-83
2022/06/19 02:50:14;;;;;;;4.35;3.60;;;;;;;;;;4863084;29;20029;-84
2022/06/19 02:52:41;;;;;;;7.15;4.00;;;;;;;;;;4862914;29;20121;-83
2022/06/19 02:55:07;;;;;;;6.57;4.10;;;;;;;;;;4863010;29;20025;-84
2022/06/19 02:57:34;;;;;;;5.38;4.50;;;;;;;;;;4862880;29;20029;-82
2022/06/19 03:00:00;;;;;;;5.25;4.10;;;;;;;;;;4879650;29;20060;-82
2022/06/19 03:02:28;;;;;;;5.82;3.75;;;;;;;;;;4865021;29;20489;-83
2022/06/19 03:04:56;;;;;;;5.03;3.75;;;;;;;;;;4866414;29;20486;-82
2022/06/19 03:07:23;;;;;;;5.45;3.60;;;;;;;;;;4883171;29;20041;-82
2022/06/19 03:09:49;;;;;;;5.78;3.90;;;;;;;;;;4866518;29;20076;-82
2022/06/19 03:12:15;;;;;;;5.82;3.58;;;;;;;;;;4866071;29;20029;-83
2022/06/19 03:14:41;;;;;;;4.97;4.28;;;;;;;;;;4866221;29;20055;-83
2022/06/19 03:17:08;;;;;;;6.05;3.40;;;;;;;;;;4866250;29;20386;-82
2022/06/19 03:19:34;;;;;;;4.65;3.50;;;;;;;;;;4866157;29;20041;-83
2022/06/19 03:22:02;;;;;;;5.22;3.53;;;;;;;;;;4882874;29;20035;-83
2022/06/19 03:24:28;;;;;;;7.15;3.85;;;;;;;;;;4866053;29;20037;-81
2022/06/19 03:26:54;;;;;;;4.78;3.60;;;;;;;;;;4866019;29;20041;-82
2022/06/19 03:29:20;;;;;;;5.32;3.83;;;;;;;;;;4866181;29;20029;-82
2022/06/19 03:31:46;;;;;;;4.72;3.75;;;;;;;;;;4865829;29;20112;-84
2022/06/19 03:34:13;;;;;;;4.18;3.50;;;;;;;;;;4865957;29;20033;-83
2022/06/19 03:36:39;;;;;;;5.00;3.95;;;;;;;;;;4865804;29;20044;-82
2022/06/19 03:39:09;;;;;;;5.25;3.90;;;;;;;;;;4865862;29;20029;-82
2022/06/19 03:41:36;;;;;;;6.15;4.07;;;;;;;;;;4882433;29;20029;-81
2022/06/19 03:44:02;;;;;;;6.60;4.28;;;;;;;;;;4865707;29;20029;-83
2022/06/19 03:46:28;;;;;;;6.03;4.38;;;;;;;;;;4865375;29;20045;-82
2022/06/19 03:48:54;;;;;;;6.40;4.53;;;;;;;;;;4882472;29;20061;-83
2022/06/19 03:51:23;;;;;;;6.55;4.28;;;;;;;;;;4865530;29;20043;-81
2022/06/19 03:53:50;;;;;;;6.53;4.60;;;;;;;;;;4882360;29;20108;-83
2022/06/19 03:56:17;;;;;;;4.78;4.05;;;;;;;;;;4882071;29;20112;-82
2022/06/19 03:58:46;;;;;;;4.82;3.65;;;;;;;;;;4882178;29;20033;-84
2022/06/19 04:01:13;;;;;;;5.03;4.45;;;;;;;;;;4865539;29;20056;-82
2022/06/19 04:03:39;;;;;;;5.80;4.22;;;;;;;;;;4882025;29;20053;-83
2022/06/19 04:06:08;;;;;;;6.45;4.43;;;;;;;;;;4865098;29;20041;-84
2022/06/19 04:08:34;;;;;;;5.45;4.22;;;;;;;;;;4881930;29;20025;-82
2022/06/19 04:11:01;;;;;;;7.20;4.47;;;;;;;;;;4865272;29;20124;-83
2022/06/19 04:13:27;;;;;;;6.85;4.20;;;;;;;;;;4864001;29;20519;-84
2022/06/19 04:15:53;;;;;;;7.38;4.00;;;;;;;;;;4863160;29;20040;-84
2022/06/19 04:18:19;;;;;;;6.78;5.05;;;;;;;;;;4846334;29;20068;-84
2022/06/19 04:20:45;;;;;;;6.70;4.30;;;;;;;;;;4846639;29;20391;-82
2022/06/19 04:23:11;;;;;;;6.65;4.32;;;;;;;;;;4863135;29;20036;-84
2022/06/19 04:25:37;;;;;;;4.97;4.00;;;;;;;;;;4846273;29;20045;-83
2022/06/19 04:28:04;;;;;;;8.30;3.95;;;;;;;;;;4846538;29;20060;-82
2022/06/19 04:30:30;;;;;;;6.18;4.10;;;;;;;;;;4863196;29;20025;-83
2022/06/19 04:32:56;;;;;;;5.05;3.83;;;;;;;;;;4846203;29;20040;-83
2022/06/19 04:35:22;;;;;;;5.57;3.78;;;;;;;;;;4846513;29;20038;-82
2022/06/19 04:37:48;;;;;;;6.85;3.50;;;;;;;;;;4846325;29;20033;-82
2022/06/19 04:40:15;;;;;;;6.75;4.32;;;;;;;;;;4846171;29;20033;-83
2022/06/19 04:42:41;;;;;;;6.60;3.97;;;;;;;;;;4862756;29;20029;-82
2022/06/19 04:45:08;;;;;;;5.63;3.67;;;;;;;;;;4845980;29;20038;-83
2022/06/19 04:47:34;;;;;;;5.75;3.88;;;;;;;;;;4846299;29;20127;-84
2022/06/19 04:50:00;;;;;;;5.53;3.60;;;;;;;;;;4845931;29;20032;-83
2022/06/19 04:52:26;;;;;;;4.93;3.58;;;;;;;;;;4846094;29;20490;-83
2022/06/19 04:54:52;;;;;;;7.32;3.38;;;;;;;;;;4845974;29;20048;-84
2022/06/19 04:57:19;;;;;;;7.65;3.25;;;;;;;;;;4845904;29;20061;-84
2022/06/19 04:59:45;;;;;;;6.75;3.60;;;;;;;;;;4845571;29;20061;-83
2022/06/19 05:02:14;;;;;;;4.78;3.33;;;;;;;;;;4846115;29;20033;-84
2022/06/19 05:04:40;;;;;;;5.30;3.25;;;;;;;;;;4845876;29;20030;-83
2022/06/19 05:07:07;;;;;;;6.55;3.70;;;;;;;;;;4862045;29;20046;-84
2022/06/19 05:09:33;;;;;;;6.15;3.80;;;;;;;;;;4845780;29;20085;-83
2022/06/19 05:11:59;;;;;;;4.60;3.20;;;;;;;;;;4845654;29;20033;-84
2022/06/19 05:14:25;;;;;;;6.15;3.90;;;;;;;;;;4853007;29;20056;-85
2022/06/19 05:16:52;;;;;;;6.60;3.72;;;;;;;;;;4863973;29;20028;-83
2022/06/19 05:19:18;;;;;;;6.80;4.20;;;;;;;;;;4880866;29;20504;-82
2022/06/19 05:21:45;;;;;;;5.25;3.80;;;;;;;;;;4864252;29;20033;-85
2022/06/19 05:24:11;;;;;;;6.70;4.03;;;;;;;;;;4880640;29;20073;-84
2022/06/19 05:26:37;;;;;;;6.18;3.58;;;;;;;;;;4880405;29;20108;-85
2022/06/19 05:29:04;;;;;;;4.25;3.13;;;;;;;;;;4880648;29;20035;-83
2022/06/19 05:31:30;;;;;;;5.15;3.78;;;;;;;;;;4880619;29;20491;-85
2022/06/19 05:33:57;;;;;;;5.03;3.20;;;;;;;;;;4863714;29;20025;-85
2022/06/19 05:36:26;;;;;;;5.07;3.65;;;;;;;;;;4863696;29;20104;-84
2022/06/19 07:15:59;;;;;;;3.67;2.47;;;;;;;;;;5487467;23;20056;-85
2022/06/19 07:18:25;;;;;;;2.55;2.00;;;;;;;;;;4902096;29;20080;-81
2022/06/19 07:20:51;;;;;;;4.03;2.05;;;;;;;;;;4885439;29;20060;-83
2022/06/19 07:23:17;;;;;;;3.13;2.03;;;;;;;;;;4884977;29;20119;-85
2022/06/19 07:25:43;;;;;;;4.45;2.03;;;;;;;;;;4885096;29;20050;-83
2022/06/19 07:28:13;;;;;;;7.03;1.65;;;;;;;;;;4884855;29;20033;-84
2022/06/19 07:30:39;;;;;;;2.92;1.75;;;;;;;;;;4902269;29;20489;-82
2022/06/19 07:33:05;;;;;;;3.88;1.73;;;;;;;;;;4884119;29;20052;-85
2022/06/19 07:35:31;;;;;;;2.85;1.48;;;;;;;;;;4901410;29;20442;-81
2022/06/19 07:37:57;;;;;;;2.75;1.40;;;;;;;;;;4884678;29;20071;-80
2022/06/19 07:40:25;;;;;;;2.60;1.35;;;;;;;;;;4884501;29;20084;-87
2022/06/19 07:42:51;;;;;;;2.75;1.45;;;;;;;;;;4884286;29;20067;-82
2022/06/19 07:45:17;;;;;;;3.38;1.20;;;;;;;;;;4884249;29;20069;-80
2022/06/19 07:50:28;;;;;;;3.38;0.98;;;;;;;;;;4900782;29;20035;-80
2022/06/19 07:52:55;;;;;;;2.28;1.00;;;;;;;;;;4901186;29;20064;-81
2022/06/19 07:55:26;;;;;;;1.75;1.10;;;;;;;;;;4884186;29;20394;-83
2022/06/19 07:57:52;;;;;;;3.15;1.35;;;;;;;;;;4883926;29;20033;-79
2022/06/19 08:00:25;;;;;;;3.05;1.10;;;;;;;;;;4900835;29;20051;-80
2022/06/19 08:02:52;;;;;;;2.70;1.02;;;;;;;;;;4883753;29;20040;-80
2022/06/19 08:05:22;;;;;;;2.53;0.85;;;;;;;;;;4900575;29;20021;-84
2022/06/19 08:07:50;;;;;;;3.47;1.20;;;;;;;;;;4883939;29;20469;-84
2022/06/19 08:10:37;;;;;;;4.13;1.00;;;;;;;;;;4887599;29;20060;-82
2022/06/19 08:13:03;;;;;;;3.58;1.05;;;;;;;;;;4904866;29;20474;-81
2022/06/19 08:15:30;;;;;;;6.00;0.95;;;;;;;;;;4883559;29;20060;-82
2022/06/19 08:17:57;;;;;;;3.17;1.10;;;;;;;;;;4883655;29;20493;-84
2022/06/19 08:20:23;;;;;;;5.38;1.00;;;;;;;;;;4883990;29;20053;-83
2022/06/19 08:22:49;;;;;;;4.40;1.17;;;;;;;;;;4883589;29;20148;-81
2022/06/19 08:25:17;;;;;;;2.00;0.95;;;;;;;;;;4883504;29;20438;-86
2022/06/19 08:27:47;;;;;;;3.17;1.27;;;;;;;;;;4900208;29;20509;-82
2022/06/19 08:30:15;;;;;;;1.73;0.90;;;;;;;;;;4883452;29;20047;-82
2022/06/19 08:32:41;;;;;;;3.63;1.10;;;;;;;;;;4900476;29;20539;-86
2022/06/19 08:35:08;;;;;;;2.05;0.90;;;;;;;;;;4883364;29;20055;-81
2022/06/19 08:37:35;;;;;;;2.55;1.00;;;;;;;;;;4900052;29;20029;-87
2022/06/19 08:40:02;;;;;;;3.95;0.90;;;;;;;;;;4883412;29;20064;-86
2022/06/19 08:42:40;;;;;;;2.22;0.98;;;;;;;;;;4883179;29;20170;-81
2022/06/19 08:45:16;;;;;;;2.10;1.00;;;;;;;;;;4899877;29;20060;-83
2022/06/19 08:48:01;;;;;;;2.50;0.95;;;;;;;;;;4883020;29;20095;-83
2022/06/19 08:50:27;;;;;;;6.22;1.30;;;;;;;;;;4882904;29;20553;-86
2022/06/19 08:52:53;;;;;;;2.53;1.02;;;;;;;;;;4883217;29;20547;-84
2022/06/19 08:55:19;;;;;;;2.38;0.90;;;;;;;;;;4883092;29;20092;-84
2022/06/19 08:57:51;;;;;;;2.63;1.10;;;;;;;;;;4883168;29;20092;-82
2022/06/19 09:00:27;;;;;;;2.95;0.90;;;;;;;;;;4882253;29;20037;-84
2022/06/19 09:02:58;;;;;;;2.30;1.00;;;;;;;;;;4883149;29;20173;-84
2022/06/19 09:05:49;;;;;;;2.85;0.88;;;;;;;;;;4882809;29;20397;-81
2022/06/19 09:08:15;;;;;;;4.07;1.00;;;;;;;;;;4882581;29;20081;-84
2022/06/19 09:10:48;;;;;;;2.13;1.13;;;;;;;;;;4882699;29;20479;-86
2022/06/19 09:13:14;;;;;;;3.17;0.90;;;;;;;;;;4882745;29;20509;-83
2022/06/19 09:15:45;;;;;;;2.33;1.13;;;;;;;;;;4899399;29;20079;-84
2022/06/19 09:18:25;;;;;;;7.63;1.05;;;;;;;;;;4899342;29;20029;-80
2022/06/19 09:21:04;;;;;;;5.38;1.00;;;;;;;;;;4882832;29;20032;-83
2022/06/19 09:23:42;;;;;;;5.10;1.23;;;;;;;;;;4882183;29;20054;-82
2022/06/19 09:26:10;;;;;;;2.53;0.95;;;;;;;;;;4882433;29;20127;-84
2022/06/19 09:28:50;;;;;;;1.77;0.90;;;;;;;;;;4899142;29;20032;-82
2022/06/19 09:31:23;;;;;;;3.03;1.10;;;;;;;;;;4882347;29;20029;-83
2022/06/19 09:33:49;;;;;;;5.18;1.30;;;;;;;;;;4882449;29;20032;-86
2022/06/19 09:36:29;;;;;;;3.67;1.20;;;;;;;;;;4882092;29;20029;-81
2022/06/19 09:39:06;;;;;;;2.78;1.33;;;;;;;;;;4881983;29;20366;-81
2022/06/19 09:41:53;;;;;;;3.55;1.10;;;;;;;;;;4882109;29;20025;-81
2022/06/19 09:44:26;;;;;;;6.38;1.23;;;;;;;;;;4872871;29;20032;-85
2022/06/19 09:47:13;;;;;;;2.15;1.00;;;;;;;;;;4882144;29;20036;-85
2022/06/19 09:49:49;;;;;;;3.45;1.00;;;;;;;;;;4881816;29;20039;-86
2022/06/19 09:52:21;;;;;;;4.55;1.20;;;;;;;;;;4881987;29;20100;-81
2022/06/19 09:54:53;;;;;;;2.45;1.10;;;;;;;;;;4882237;29;20589;-81
2022/06/19 09:57:23;;;;;;;3.58;1.20;;;;;;;;;;4881728;29;20029;-84
2022/06/19 09:59:52;;;;;;;2.00;1.17;;;;;;;;;;4882034;29;20035;-84
2022/06/19 10:02:27;;;;;;;3.13;0.90;;;;;;;;;;4881821;29;20430;-82
2022/06/19 10:04:58;;;;;;;2.80;0.90;;;;;;;;;;4881907;29;20111;-83
2022/06/19 10:07:24;;;;;;;;;;;;;;;;;;4881898;29;20037;-81
2022/06/19 10:09:53;;;;;;;2.53;1.00;;;;;;;;;;4881588;29;19923;-84
2022/06/19 10:12:25;;;;;;;4.25;0.98;;;;;;;;;;4880947;29;20024;-84
2022/06/19 10:14:53;;;;;;;3.35;0.80;;;;;;;;;;4881740;29;20041;-82
2022/06/19 10:17:42;;;;;;;3.10;0.93;;;;;;;;;;4881070;29;20056;-82
2022/06/19 10:20:14;;;;;;;2.85;0.90;;;;;;;;;;4855533;29;20496;-82
2022/06/19 10:22:43;;;;;;;5.93;1.00;;;;;;;;;;4881527;29;20025;-85
2022/06/19 10:25:18;;;;;;;3.50;0.90;;;;;;;;;;4881488;29;20033;-83
2022/06/19 10:27:59;;;;;;;4.32;1.00;;;;;;;;;;4881459;29;20119;-81
2022/06/19 10:30:26;;;;;;;3.33;0.98;;;;;;;;;;4881321;29;20035;-82
2022/06/19 10:33:21;;;;;;;4.60;1.20;;;;;;;;;;4898221;29;20036;-83
2022/06/19 10:35:53;;;;;;;4.50;0.93;;;;;;;;;;4869416;29;20131;-82
2022/06/19 10:38:19;;;;;;;2.15;1.00;;;;;;;;;;4881394;29;20029;-83
2022/06/19 10:40:52;;;;;;;3.55;1.02;;;;;;;;;;4898171;29;20505;-84
2022/06/19 10:43:18;;;;;;;3.85;1.00;;;;;;;;;;4881385;29;20505;-83
2022/06/19 10:45:56;;;;;;;6.20;1.00;;;;;;;;;;4897684;29;20049;-83
2022/06/19 10:48:27;;;;;;;2.40;0.82;;;;;;;;;;4881606;29;20466;-81
2022/06/19 10:51:12;;;;;;;2.60;1.08;;;;;;;;;;4898343;29;20027;-81
2022/06/19 10:53:50;;;;;;;4.43;1.17;;;;;;;;;;4881204;29;20029;-85
2022/06/19 10:56:36;;;;;;;2.92;1.10;;;;;;;;;;4898276;29;20273;-78
2022/06/19 10:59:04;;;;;;;4.25;1.20;;;;;;;;;;4881424;29;20029;-84
2022/06/19 11:04:27;;;;;;;4.47;1.02;;;;;;;;;;4898468;29;20441;-82
2022/06/19 11:06:55;;;;;;;2.65;1.10;;;;;;;;;;4880986;29;20040;-81
2022/06/19 11:09:39;;;;;;;3.20;1.10;;;;;;;;;;4879022;29;20107;-82
2022/06/19 11:12:07;;;;;;;6.18;1.42;;;;;;;;;;4879659;29;20080;-83
2022/06/19 11:14:35;;;;;;;1.83;1.10;;;;;;;;;;4893014;29;20032;-83
2022/06/19 11:17:01;;;;;;;4.38;1.25;;;;;;;;;;4880708;29;20065;-85
2022/06/19 11:19:33;;;;;;;4.50;1.58;;;;;;;;;;4882192;29;20036;-81
2022/06/19 11:21:59;;;;;;;;;;;;;;;;;;4881688;29;20029;-85
2022/06/19 11:24:29;;;;;;;2.42;1.30;;;;;;;;;;4901731;29;19930;-83
2022/06/19 11:26:56;;;;;;;3.20;1.42;;;;;;;;;;4885003;29;20045;-83
2022/06/19 11:29:24;;;;;;;3.17;1.40;;;;;;;;;;4884043;29;20037;-83
2022/06/19 11:32:13;;;;;;;3.42;1.50;;;;;;;;;;4887182;29;20029;-83
2022/06/19 11:34:44;;;;;;;4.15;1.52;;;;;;;;;;4881750;29;20379;-86
2022/06/19 11:37:10;;;;;;;3.00;1.55;;;;;;;;;;4881345;29;20069;-78
2022/06/19 11:39:39;;;;;;;3.50;1.63;;;;;;;;;;4881031;29;20237;-84
2022/06/19 11:42:24;;;;;;;8.43;1.63;;;;;;;;;;4882549;29;20029;-85
2022/06/19 11:44:51;;;;;;;3.55;1.38;;;;;;;;;;4881535;29;20371;-84
2022/06/19 11:47:19;;;;;;;3.78;1.45;;;;;;;;;;4882409;29;20033;-82
2022/06/19 11:49:45;;;;;;;7.07;1.40;;;;;;;;;;4881372;29;20035;-89
2022/06/19 11:52:18;;;;;;;5.47;1.40;;;;;;;;;;4881200;29;20037;-84
2022/06/19 11:54:47;;;;;;;3.10;1.48;;;;;;;;;;4882466;29;20032;-81
2022/06/19 11:57:26;;;;;;;3.17;1.50;;;;;;;;;;4880728;29;20474;-81
2022/06/19 11:59:57;;;;;;;8.82;1.58;;;;;;;;;;4880469;29;20116;-79
2022/06/19 12:02:31;;;;;;;2.28;1.60;;;;;;;;;;4880126;29;20041;-84
2022/06/19 12:05:02;;;;;;;2.25;1.50;;;;;;;;;;4880842;29;20044;-81
2022/06/19 12:07:32;;;;;;;5.18;1.60;;;;;;;;;;4880631;29;20545;-80
2022/06/19 12:10:00;;;;;;;2.35;1.38;;;;;;;;;;4880779;29;20501;-80
2022/06/19 12:12:27;;;;;;;4.65;1.55;;;;;;;;;;4880544;29;20025;-80
2022/06/19 12:14:56;;;;;;;2.88;1.20;;;;;;;;;;4881684;29;20037;-80
2022/06/19 12:17:25;;;;;;;3.65;1.58;;;;;;;;;;4880420;29;20102;-80
2022/06/19 12:19:56;;;;;;;2.30;1.40;;;;;;;;;;4881668;29;20025;-79
2022/06/19 12:22:27;;;;;;;4.47;1.25;;;;;;;;;;4880373;29;20040;-80
2022/06/19 12:25:00;;;;;;;4.35;1.50;;;;;;;;;;4880838;29;20087;-84
2022/06/19 12:27:30;;;;;;;7.10;1.60;;;;;;;;;;4881858;29;20116;-81
2022/06/19 12:29:58;;;;;;;5.07;1.50;;;;;;;;;;4880550;29;20029;-82
2022/06/19 12:32:39;;;;;;;2.42;1.67;;;;;;;;;;4880238;29;20033;-81
2022/06/19 12:35:14;;;;;;;2.67;1.35;;;;;;;;;;4879538;29;20033;-80
2022/06/19 12:37:40;;;;;;;4.72;1.20;;;;;;;;;;4880109;29;20101;-81
2022/06/19 12:40:07;;;;;;;4.60;1.50;;;;;;;;;;4880133;29;20393;-81
2022/06/19 12:42:47;;;;;;;2.10;1.13;;;;;;;;;;4880105;29;20467;-81
2022/06/19 12:45:13;;;;;;;5.40;1.60;;;;;;;;;;4879987;29;20033;-82
2022/06/19 12:47:58;;;;;;;3.45;1.20;;;;;;;;;;4879840;29;20037;-81
2022/06/19 12:50:43;;;;;;;6.50;1.52;;;;;;;;;;4880006;29;20056;-82
2022/06/19 12:53:15;;;;;;;2.33;1.23;;;;;;;;;;4879938;29;20389;-80
2022/06/19 12:55:54;;;;;;;2.95;1.17;;;;;;;;;;4879750;29;20033;-82
2022/06/19 12:58:39;;;;;;;4.10;1.23;;;;;;;;;;4879949;29;20089;-83
2022/06/19 13:01:11;;;;;;;2.10;1.30;;;;;;;;;;4880039;29;20488;-82
2022/06/19 13:03:56;;;;;;;2.35;1.30;;;;;;;;;;4879479;29;20405;-83
2022/06/19 13:06:31;;;;;;;3.08;1.30;;;;;;;;;;4879829;29;20071;-82
2022/06/19 13:09:16;;;;;;;3.90;1.40;;;;;;;;;;4879567;29;20107;-81
2022/06/19 13:11:49;;;;;;;5.93;1.48;;;;;;;;;;4879540;29;20068;-81
2022/06/19 13:14:21;;;;;;;2.72;1.35;;;;;;;;;;4879524;29;20029;-80
2022/06/19 13:16:48;;;;;;;6.70;1.70;;;;;;;;;;4879486;29;20432;-80
2022/06/19 13:19:26;;;;;;;2.80;1.40;;;;;;;;;;4880777;29;20033;-81
2022/06/19 13:21:58;;;;;;;4.45;1.40;;;;;;;;;;4879383;29;20080;-80
2022/06/19 13:24:40;;;;;;;2.00;1.05;;;;;;;;;;4879352;29;20497;-80
2022/06/19 13:27:12;;;;;;;2.55;1.35;;;;;;;;;;4879360;29;20037;-82
2022/06/19 13:29:40;;;;;;;1.90;1.10;;;;;;;;;;4879986;29;20116;-80
2022/06/19 13:32:26;;;;;;;2.20;1.25;;;;;;;;;;4879564;29;20443;-79
2022/06/19 13:35:00;;;;;;;3.28;1.25;;;;;;;;;;4879276;29;20029;-79
2022/06/19 13:37:29;;;;;;;2.35;1.30;;;;;;;;;;4879315;29;20435;-81
2022/06/19 13:40:06;;;;;;;4.10;1.33;;;;;;;;;;4879177;29;20040;-81
2022/06/19 13:42:35;;;;;;;2.88;1.40;;;;;;;;;;4879301;29;20053;-82
2022/06/19 13:45:01;;;;;;;3.83;1.45;;;;;;;;;;4879157;29;20025;-85
2022/06/19 13:47:31;;;;;;;2.08;1.40;;;;;;;;;;4879267;29;20086;-85
2022/06/19 13:50:21;;;;;;;3.88;1.55;;;;;;;;;;4878869;29;20515;-79
2022/06/19 13:53:06;;;;;;;5.13;1.80;;;;;;;;;;4854505;29;20072;-80
2022/06/19 13:55:32;;;;;;;3.63;1.42;;;;;;;;;;4879225;29;20375;-80
2022/06/19 13:58:03;;;;;;;2.25;1.30;;;;;;;;;;4879373;29;20033;-86
2022/06/19 14:00:35;;;;;;;3.65;1.40;;;;;;;;;;4879052;29;20478;-81
2022/06/19 14:03:10;;;;;;;3.65;1.45;;;;;;;;;;4878728;29;20379;-82
2022/06/19 14:05:38;;;;;;;2.20;1.40;;;;;;;;;;4880082;29;20526;-81
2022/06/19 14:08:16;;;;;;;2.42;1.20;;;;;;;;;;4880120;29;20029;-85
2022/06/19 14:10:45;;;;;;;2.75;1.25;;;;;;;;;;4878949;29;20053;-82
2022/06/19 14:13:11;;;;;;;3.28;1.42;;;;;;;;;;4879168;29;20121;-86
2022/06/19 14:15:56;;;;;;;3.88;1.20;;;;;;;;;;4878763;29;20082;-80
2022/06/19 14:18:36;;;;;;;3.10;1.10;;;;;;;;;;4878886;29;20025;-83
2022/06/19 14:21:24;;;;;;;2.15;1.40;;;;;;;;;;4878703;29;20375;-81
2022/06/19 14:24:14;;;;;;;3.65;1.30;;;;;;;;;;4878602;29;20021;-81
2022/06/19 14:26:44;;;;;;;3.30;1.20;;;;;;;;;;4878849;29;20044;-81
2022/06/19 14:29:28;;;;;;;2.28;1.13;;;;;;;;;;4879126;29;20029;-82
2022/06/19 14:31:55;;;;;;;2.47;1.20;;;;;;;;;;4879204;29;20155;-80
2022/06/19 14:34:42;;;;;;;2.45;1.20;;;;;;;;;;4879877;29;20025;-84
2022/06/19 14:37:27;;;;;;;2.97;1.33;;;;;;;;;;4878626;29;20048;-86
2022/06/19 14:39:58;;;;;;;5.60;1.40;;;;;;;;;;4878437;29;20554;-81
2022/06/19 14:42:25;;;;;;;4.45;1.50;;;;;;;;;;4878415;29;20482;-81
2022/06/19 14:44:53;;;;;;;4.15;1.33;;;;;;;;;;4878304;29;20513;-81
2022/06/19 14:47:23;;;;;;;2.88;1.30;;;;;;;;;;4878098;29;20040;-81
2022/06/19 14:50:07;;;;;;;4.47;1.40;;;;;;;;;;4879595;29;20441;-81
2022/06/19 14:52:43;;;;;;;5.60;1.73;;;;;;;;;;4878521;29;20112;-81
2022/06/19 14:55:18;;;;;;;2.78;1.13;;;;;;;;;;4879299;29;20033;-81
2022/06/19 14:57:45;;;;;;;4.57;1.50;;;;;;;;;;4879959;29;20525;-81
2022/06/19 15:00:15;;;;;;;3.22;1.33;;;;;;;;;;4883398;29;20029;-83
2022/06/19 15:02:44;;;;;;;4.05;1.40;;;;;;;;;;4883435;29;20061;-80
2022/06/19 15:05:30;;;;;;;4.40;1.30;;;;;;;;;;4881695;29;20033;-81
2022/06/19 15:07:59;;;;;;;4.85;1.63;;;;;;;;;;4866365;29;20479;-82
2022/06/19 15:10:26;;;;;;;3.55;1.55;;;;;;;;;;4881891;29;20033;-80
2022/06/19 15:13:08;;;;;;;3.22;1.73;;;;;;;;;;4882859;29;20089;-80
2022/06/19 15:15:37;;;;;;;2.88;1.60;;;;;;;;;;4881968;29;20104;-82
2022/06/19 15:18:21;;;;;;;2.83;1.35;;;;;;;;;;4881643;29;20033;-82
2022/06/19 15:21:05;;;;;;;2.80;1.60;;;;;;;;;;4881808;29;20131;-81
2022/06/19 15:23:31;;;;;;;3.53;1.40;;;;;;;;;;4881567;29;20025;-80
2022/06/19 15:26:13;;;;;;;5.72;1.70;;;;;;;;;;4881376;29;20041;-81
2022/06/19 15:28:39;;;;;;;8.13;1.33;;;;;;;;;;4881277;29;20029;-80
2022/06/19 15:31:21;;;;;;;6.60;1.52;;;;;;;;;;4881307;29;20470;-80
2022/06/19 15:34:22;;;;;;;4.07;1.50;;;;;;;;;;4881159;29;20037;-80
2022/06/19 15:36:51;;;;;;;4.60;1.60;;;;;;;;;;4881278;29;20025;-80
2022/06/19 15:39:19;;;;;;;5.18;1.70;;;;;;;;;;4881299;29;20040;-84
2022/06/19 15:41:51;;;;;;;2.28;1.50;;;;;;;;;;4881242;29;20530;-84
2022/06/19 15:44:17;;;;;;;2.90;1.60;;;;;;;;;;4881118;29;20085;-84
2022/06/19 15:47:01;;;;;;;3.28;1.50;;;;;;;;;;4880626;29;20089;-81
2022/06/19 15:49:28;;;;;;;5.60;1.45;;;;;;;;;;4881132;29;20033;-81
2022/06/19 15:52:01;;;;;;;4.40;1.58;;;;;;;;;;4882170;29;20033;-84
2022/06/19 15:54:30;;;;;;;3.70;1.20;;;;;;;;;;4882020;29;20036;-84
2022/06/19 15:56:56;;;;;;;3.50;1.50;;;;;;;;;;4881043;29;20040;-81
2022/06/19 15:59:25;;;;;;;5.03;1.50;;;;;;;;;;4881233;29;20025;-90
2022/06/19 16:01:57;;;;;;;2.90;1.35;;;;;;;;;;4881024;29;20546;-82
2022/06/19 16:04:34;;;;;;;4.15;1.40;;;;;;;;;;4882038;29;20489;-86
2022/06/19 16:07:11;;;;;;;3.58;1.60;;;;;;;;;;4895283;29;20049;-80
2022/06/19 16:09:48;;;;;;;3.55;1.50;;;;;;;;;;4866576;29;20037;-82
2022/06/19 16:12:25;;;;;;;2.78;1.30;;;;;;;;;;4884110;29;20474;-82
2022/06/19 16:15:08;;;;;;;3.38;1.42;;;;;;;;;;4900718;29;20052;-90
2022/06/19 16:17:37;;;;;;;5.28;1.40;;;;;;;;;;4884257;29;20070;-82
2022/06/19 16:20:14;;;;;;;2.40;1.30;;;;;;;;;;4883511;29;20394;-82
2022/06/19 16:22:40;;;;;;;4.10;1.60;;;;;;;;;;4900447;29;20052;-79
2022/06/19 16:25:06;;;;;;;2.95;1.40;;;;;;;;;;4883544;29;20080;-80
2022/06/19 16:27:35;;;;;;;3.78;1.42;;;;;;;;;;4900084;29;20041;-83
2022/06/19 16:30:02;;;;;;;3.05;1.50;;;;;;;;;;4883685;29;20029;-82
2022/06/19 16:32:35;;;;;;;4.38;1.58;;;;;;;;;;4883179;29;20029;-79
2022/06/19 16:44:08;;;;;;;3.10;1.30;;;;;;;;;;4900442;29;20482;-86
2022/06/19 16:46:40;;;;;;;3.70;1.30;;;;;;;;;;4883368;29;20029;-84
2022/06/19 16:49:19;;;;;;;2.90;1.48;;;;;;;;;;4882976;29;20036;-79
2022/06/19 16:51:50;;;;;;;2.28;1.15;;;;;;;;;;4899782;29;20031;-83
2022/06/19 16:54:17;;;;;;;4.93;1.40;;;;;;;;;;4899838;29;20044;-83
2022/06/19 16:56:43;;;;;;;1.60;1.10;;;;;;;;;;4899757;29;20111;-80
2022/06/19 16:59:10;;;;;;;4.88;1.52;;;;;;;;;;4882998;29;20032;-82